createdAt,value
2023-05-02T00:00:17.440Z,65.82
2023-05-02T00:03:08.464Z,65.33
2023-05-02T00:05:37.531Z,66.06
2023-05-02T00:08:06.227Z,64.76
2023-05-02T00:10:35.266Z,64.82
2023-05-02T00:13:03.827Z,65.31
2023-05-02T00:15:32.431Z,66.17
2023-05-02T00:18:01.123Z,66.30
2023-05-02T00:20:30.002Z,65.69
2023-05-02T00:22:58.407Z,66.50
2023-05-02T00:25:26.930Z,66.71
2023-05-02T00:27:56.066Z,67.42
2023-05-02T00:30:24.629Z,66.22
2023-05-02T00:32:54.496Z,66.61
2023-05-02T00:35:23.119Z,67.30
2023-05-02T00:37:52.070Z,66.62
2023-05-02T00:40:21.382Z,66.31
2023-05-02T00:42:49.836Z,66.62
2023-05-02T00:45:18.794Z,67.28
2023-05-02T00:47:47.380Z,67.72
2023-05-02T00:50:17.270Z,66.92
2023-05-02T00:52:46.672Z,67.02
2023-05-02T00:55:15.332Z,67.35
2023-05-02T00:57:43.860Z,66.86
2023-05-02T01:00:13.747Z,67.17
2023-05-02T01:03:00.008Z,68.60
2023-05-02T01:05:40.454Z,69.15
2023-05-02T01:08:19.619Z,68.88
2023-05-02T01:11:15.623Z,69.00
2023-05-02T01:13:47.963Z,69.08
2023-05-02T01:16:19.292Z,70.36
2023-05-02T01:18:49.625Z,68.75
2023-05-02T01:21:18.253Z,68.19
2023-05-02T01:24:00.513Z,67.44
2023-05-02T01:26:50.284Z,67.40
2023-05-02T01:29:22.572Z,67.38
2023-05-02T01:31:52.593Z,67.79
2023-05-02T01:34:22.698Z,67.64
2023-05-02T01:36:52.267Z,67.94
2023-05-02T01:39:23.268Z,68.47
2023-05-02T01:41:56.730Z,68.41
2023-05-02T01:44:28.079Z,69.72
2023-05-02T01:46:58.432Z,69.24
2023-05-02T01:49:27.672Z,68.46
2023-05-02T01:51:58.328Z,68.05
2023-05-02T01:54:27.720Z,68.29
2023-05-02T01:56:57.952Z,70.03
2023-05-02T01:59:29.720Z,69.68
2023-05-02T02:02:01.955Z,69.60
2023-05-02T02:04:32.683Z,70.03
2023-05-02T02:07:07.649Z,70.23
2023-05-02T02:09:36.437Z,71.96
2023-05-02T02:12:16.242Z,72.43
2023-05-02T02:14:51.339Z,71.41
2023-05-02T02:17:30.455Z,70.90
2023-05-02T02:20:04.008Z,70.58
2023-05-02T02:22:37.540Z,69.82
2023-05-02T02:25:08.995Z,70.12
2023-05-02T02:27:41.666Z,72.56
2023-05-02T02:30:11.428Z,71.90
2023-05-02T02:32:40.224Z,70.88
2023-05-02T02:35:10.929Z,70.03
2023-05-02T02:37:51.277Z,69.88
2023-05-02T02:40:29.896Z,70.80
2023-05-02T02:43:07.194Z,69.93
2023-05-02T02:45:47.078Z,70.36
2023-05-02T02:48:21.641Z,71.89
2023-05-02T02:51:09.496Z,71.77
2023-05-02T02:54:05.935Z,70.74
2023-05-02T02:56:49.481Z,70.95
2023-05-02T02:59:34.449Z,72.01
2023-05-02T03:02:08.573Z,72.19
2023-05-02T03:04:41.289Z,71.45
2023-05-02T03:07:10.793Z,71.11
2023-05-02T03:09:45.075Z,72.32
2023-05-02T03:12:15.475Z,72.92
2023-05-02T03:14:44.501Z,72.47
2023-05-02T03:17:13.514Z,71.43
2023-05-02T03:19:42.622Z,71.27
2023-05-02T03:22:11.485Z,71.69
2023-05-02T03:24:39.909Z,71.72
2023-05-02T03:27:08.318Z,71.38
2023-05-02T03:29:40.295Z,70.93
2023-05-02T03:32:09.710Z,70.29
2023-05-02T03:34:38.949Z,70.07
2023-05-02T03:37:07.488Z,70.14
2023-05-02T03:39:36.114Z,70.21
2023-05-02T03:42:05.779Z,70.27
2023-05-02T03:44:34.222Z,70.73
2023-05-02T03:47:03.407Z,70.42
2023-05-02T03:49:35.125Z,71.25
2023-05-02T03:52:04.687Z,71.91
2023-05-02T03:54:33.940Z,71.24
2023-05-02T03:57:05.127Z,70.38
2023-05-02T03:59:35.545Z,70.04
2023-05-02T04:02:08.455Z,69.75
2023-05-02T04:04:47.632Z,69.72
2023-05-02T04:07:19.772Z,69.35
2023-05-02T04:09:54.651Z,69.13
2023-05-02T04:12:23.138Z,69.22
2023-05-02T04:14:53.557Z,68.98
2023-05-02T04:17:24.751Z,68.81
2023-05-02T04:19:53.179Z,69.18
2023-05-02T04:22:25.352Z,69.17
2023-05-02T04:24:58.445Z,69.08
2023-05-02T04:27:27.657Z,68.99
2023-05-02T04:29:56.844Z,68.83
2023-05-02T04:32:25.544Z,68.66
2023-05-02T04:34:57.282Z,68.31
2023-05-02T04:37:26.357Z,68.15
2023-05-02T04:39:55.165Z,68.28
2023-05-02T04:42:27.909Z,67.81
2023-05-02T04:45:02.774Z,67.50
2023-05-02T04:47:31.246Z,67.51
2023-05-02T04:49:59.958Z,67.00
2023-05-02T04:52:28.537Z,66.72
2023-05-02T04:54:57.358Z,66.81
2023-05-02T04:57:26.538Z,66.73
2023-05-02T04:59:58.454Z,66.60
2023-05-02T05:02:28.165Z,66.38
2023-05-02T05:04:58.172Z,66.00
2023-05-02T05:07:26.600Z,65.63
2023-05-02T05:09:56.114Z,65.32
2023-05-02T05:12:26.921Z,64.96
2023-05-02T05:14:55.315Z,64.82
2023-05-02T05:17:26.979Z,64.57
2023-05-02T05:19:56.054Z,64.30
2023-05-02T05:22:24.610Z,64.06
2023-05-02T05:24:56.065Z,63.85
2023-05-02T05:27:29.373Z,63.67
2023-05-02T05:29:57.837Z,63.36
2023-05-02T05:32:26.476Z,63.07
2023-05-02T05:34:55.350Z,62.96
2023-05-02T05:37:28.648Z,62.72
2023-05-02T05:39:58.666Z,62.38
2023-05-02T05:42:27.621Z,62.10
2023-05-02T05:45:00.163Z,61.97
2023-05-02T05:47:29.233Z,61.36
2023-05-02T05:49:58.491Z,61.22
2023-05-02T05:52:30.597Z,60.58
2023-05-02T05:55:01.761Z,60.40
2023-05-02T05:57:30.617Z,60.57
2023-05-02T05:59:59.413Z,59.99
2023-05-02T06:02:28.184Z,60.14
2023-05-02T06:04:57.591Z,59.88
2023-05-02T06:07:27.184Z,59.33
2023-05-02T06:09:56.080Z,59.05
2023-05-02T06:12:24.940Z,59.11
2023-05-02T06:18:25.180Z,57.55
2023-05-02T06:20:53.703Z,57.36
2023-05-02T06:23:22.384Z,57.20
2023-05-02T06:25:51.996Z,56.24
2023-05-02T06:28:20.476Z,56.50
2023-05-02T06:31:01.360Z,55.73
2023-05-02T06:33:31.256Z,55.83
2023-05-02T06:36:01.950Z,53.65
2023-05-02T06:38:30.905Z,54.97
2023-05-02T06:40:59.663Z,54.50
2023-05-02T06:43:28.574Z,55.04
2023-05-02T06:45:56.883Z,54.69
2023-05-02T06:48:25.311Z,54.79
2023-05-02T06:50:56.555Z,54.32
2023-05-02T06:53:25.276Z,53.16
2023-05-02T06:55:53.962Z,53.23
2023-05-02T06:58:22.717Z,53.39
2023-05-02T07:00:52.672Z,53.43
2023-05-02T07:03:21.177Z,51.95
2023-05-02T07:05:50.205Z,52.32
2023-05-02T07:08:18.903Z,52.11
2023-05-02T07:10:48.052Z,52.63
2023-05-02T07:13:17.446Z,51.16
2023-05-02T07:15:46.119Z,50.70
2023-05-02T07:18:15.365Z,50.13
2023-05-02T07:20:43.842Z,50.83
2023-05-02T07:23:12.211Z,48.87
2023-05-02T07:25:40.694Z,49.10
2023-05-02T07:28:09.018Z,49.86
2023-05-02T07:30:39.333Z,46.74
2023-05-02T07:33:07.924Z,48.01
2023-05-02T07:35:39.688Z,48.14
2023-05-02T07:38:08.033Z,47.66
2023-05-02T07:40:36.401Z,44.55
2023-05-02T07:43:04.697Z,44.99
2023-05-02T07:45:32.975Z,44.35
2023-05-02T07:48:01.658Z,43.87
2023-05-02T07:50:29.902Z,43.95
2023-05-02T07:52:58.150Z,40.08
2023-05-02T07:55:30.747Z,41.30
2023-05-02T07:57:59.454Z,38.31
2023-05-02T08:00:27.836Z,38.96
2023-05-02T08:02:56.473Z,38.82
2023-05-02T08:05:25.479Z,38.44
2023-05-02T08:07:53.761Z,38.74
2023-05-02T08:10:23.620Z,37.28
2023-05-02T08:12:51.914Z,36.00
2023-05-02T08:15:20.417Z,37.43
2023-05-02T08:17:48.853Z,38.42
2023-05-02T08:20:19.736Z,37.86
2023-05-02T08:22:48.007Z,34.93
2023-05-02T08:25:16.770Z,36.95
2023-05-02T08:27:47.885Z,36.19
2023-05-02T08:30:16.477Z,37.21
2023-05-02T08:32:46.320Z,34.98
2023-05-02T08:35:14.740Z,34.82
2023-05-02T08:37:43.093Z,32.01
2023-05-02T08:40:12.869Z,31.02
2023-05-02T08:42:44.110Z,30.92
2023-05-02T08:45:16.552Z,30.90
2023-05-02T08:47:47.244Z,31.37
2023-05-02T08:50:18.905Z,31.41
2023-05-02T08:52:49.066Z,31.28
2023-05-02T08:55:18.128Z,32.60
2023-05-02T08:57:46.672Z,32.10
2023-05-02T09:03:56.140Z,31.71
2023-05-02T09:06:24.744Z,32.92
2023-05-02T09:08:53.337Z,31.53
2023-05-02T09:11:22.353Z,32.64
2023-05-02T09:13:52.858Z,32.61
2023-05-02T09:16:27.300Z,31.81
2023-05-02T09:18:58.165Z,31.46
2023-05-02T09:21:35.912Z,32.94
2023-05-02T09:24:17.259Z,32.11
2023-05-02T09:27:04.699Z,31.94
2023-05-02T09:29:39.052Z,30.46
2023-05-02T09:32:07.754Z,31.07
2023-05-02T09:34:37.834Z,30.45
2023-05-02T09:37:06.619Z,31.03
2023-05-02T09:39:35.040Z,29.93
2023-05-02T09:42:03.906Z,29.18
2023-05-02T09:44:38.178Z,29.46
2023-05-02T09:47:08.837Z,30.11
2023-05-02T09:49:41.473Z,29.92
2023-05-02T09:52:14.724Z,30.52
2023-05-02T09:54:43.656Z,28.84
2023-05-02T09:57:12.265Z,29.69
2023-05-02T09:59:41.654Z,29.84
2023-05-02T10:02:12.129Z,29.83
2023-05-02T10:04:42.237Z,30.33
2023-05-02T10:07:11.752Z,30.04
2023-05-02T10:09:45.639Z,29.23
2023-05-02T10:12:24.074Z,28.05
2023-05-02T10:15:01.047Z,27.24
2023-05-02T10:17:42.374Z,27.76
2023-05-02T10:20:16.701Z,27.70
2023-05-02T10:22:47.814Z,28.18
2023-05-02T10:25:16.565Z,28.08
2023-05-02T10:27:45.689Z,27.93
2023-05-02T10:30:15.276Z,27.21
2023-05-02T10:32:48.246Z,26.60
2023-05-02T10:35:17.087Z,26.87
2023-05-02T10:37:46.240Z,26.51
2023-05-02T10:40:14.948Z,25.62
2023-05-02T10:42:46.905Z,25.96
2023-05-02T10:45:35.763Z,26.68
2023-05-02T10:48:27.267Z,26.61
2023-05-02T10:50:57.025Z,26.96
2023-05-02T10:53:27.741Z,27.23
2023-05-02T10:56:28.513Z,27.67
2023-05-02T10:59:36.867Z,27.94
2023-05-02T11:02:26.330Z,27.51
2023-05-02T11:05:06.698Z,27.01
2023-05-02T11:07:36.821Z,27.25
2023-05-02T11:10:17.590Z,26.57
2023-05-02T11:13:01.475Z,26.36
2023-05-02T11:15:29.706Z,26.25
2023-05-02T11:18:09.502Z,26.51
2023-05-02T11:20:43.033Z,26.26
2023-05-02T11:23:16.183Z,26.68
2023-05-02T11:25:53.758Z,26.66
2023-05-02T11:28:43.512Z,27.05
2023-05-02T11:31:27.253Z,26.46
2023-05-02T11:33:59.963Z,26.86
2023-05-02T11:36:33.806Z,26.92
2023-05-02T11:39:05.493Z,26.63
2023-05-02T11:41:43.856Z,27.14
2023-05-02T11:44:12.289Z,24.52
2023-05-02T11:46:41.383Z,25.18
2023-05-02T11:49:12.008Z,25.60
2023-05-02T11:51:41.298Z,24.74
2023-05-02T11:54:10.449Z,24.74
2023-05-02T11:56:38.729Z,24.85
2023-05-02T11:59:08.503Z,25.34
2023-05-02T12:01:36.999Z,24.11
2023-05-02T12:04:08.030Z,25.46
2023-05-02T12:06:36.677Z,25.03
2023-05-02T12:09:09.089Z,24.85
2023-05-02T12:11:38.870Z,25.08
2023-05-02T12:14:07.285Z,24.20
2023-05-02T12:16:36.139Z,23.91
2023-05-02T12:19:05.803Z,24.57
2023-05-02T12:21:34.303Z,24.49
2023-05-02T12:24:03.681Z,24.09
2023-05-02T12:26:33.797Z,24.34
2023-05-02T12:29:03.075Z,24.11
2023-05-02T12:31:32.415Z,24.67
2023-05-02T12:34:35.753Z,24.73
2023-05-02T12:37:09.389Z,25.03
2023-05-02T12:39:39.652Z,24.58
2023-05-02T12:42:14.809Z,23.97
2023-05-02T12:44:47.082Z,24.25
2023-05-02T12:47:17.052Z,24.51
2023-05-02T12:49:54.598Z,24.39
2023-05-02T12:52:59.399Z,24.15
2023-05-02T12:55:28.528Z,24.28
2023-05-02T12:58:03.057Z,23.74
2023-05-02T13:00:33.636Z,23.58
2023-05-02T13:03:02.270Z,23.37
2023-05-02T13:05:31.414Z,23.15
2023-05-02T13:08:00.177Z,23.09
2023-05-02T13:10:29.026Z,21.64
2023-05-02T13:13:41.270Z,22.45
2023-05-02T13:16:11.808Z,22.76
2023-05-02T13:19:03.998Z,22.97
2023-05-02T13:21:38.230Z,22.90
2023-05-02T13:24:07.253Z,22.71
2023-05-02T13:26:35.630Z,22.78
2023-05-02T13:29:04.008Z,23.02
2023-05-02T13:31:32.428Z,22.54
2023-05-02T13:34:01.130Z,22.36
2023-05-02T13:36:29.448Z,22.37
2023-05-02T13:38:58.152Z,22.14
2023-05-02T13:41:26.324Z,22.95
2023-05-02T13:43:55.438Z,22.87
2023-05-02T13:46:24.004Z,21.76
2023-05-02T13:48:52.740Z,21.39
2023-05-02T13:51:21.049Z,21.26
2023-05-02T13:53:49.320Z,21.00
2023-05-02T13:56:17.900Z,20.84
2023-05-02T13:58:46.098Z,20.69
2023-05-02T14:01:14.442Z,21.36
2023-05-02T14:03:43.341Z,20.44
2023-05-02T14:06:12.615Z,20.68
2023-05-02T14:08:41.076Z,20.23
2023-05-02T14:11:09.743Z,21.38
2023-05-02T14:13:38.263Z,20.79
2023-05-02T14:16:08.731Z,20.05
2023-05-02T14:18:37.197Z,20.44
2023-05-02T14:21:06.353Z,19.78
2023-05-02T14:23:36.128Z,19.74
2023-05-02T14:26:04.582Z,20.67
2023-05-02T14:28:32.866Z,20.78
2023-05-02T14:31:01.937Z,20.24
2023-05-02T14:33:30.640Z,20.30
2023-05-02T14:36:01.026Z,20.78
2023-05-02T14:38:29.490Z,21.10
2023-05-02T14:40:57.816Z,21.49
2023-05-02T14:43:27.738Z,21.31
2023-05-02T14:45:57.909Z,21.30
2023-05-02T14:48:26.512Z,21.05
2023-05-02T14:50:54.872Z,21.48
2023-05-02T14:53:23.197Z,21.70
2023-05-02T14:55:51.694Z,21.89
2023-05-02T14:58:20.845Z,21.77
2023-05-02T15:00:49.625Z,21.76
2023-05-02T15:03:18.330Z,21.44
2023-05-02T15:05:46.987Z,21.89
2023-05-02T15:08:15.552Z,22.13
2023-05-02T15:10:43.886Z,22.26
2023-05-02T15:13:12.303Z,22.73
2023-05-02T15:15:40.688Z,22.59
2023-05-02T15:18:08.989Z,22.88
2023-05-02T15:20:37.372Z,22.82
2023-05-02T15:23:05.860Z,23.43
2023-05-02T15:25:34.107Z,23.32
2023-05-02T15:28:04.599Z,23.50
2023-05-02T15:30:32.898Z,23.56
2023-05-02T15:33:02.098Z,23.29
2023-05-02T15:35:31.594Z,23.60
2023-05-02T15:38:00.187Z,23.92
2023-05-02T15:40:29.129Z,24.25
2023-05-02T15:42:57.521Z,24.10
2023-05-02T15:45:26.191Z,24.17
2023-05-02T15:47:56.567Z,24.33
2023-05-02T15:50:25.835Z,24.48
2023-05-02T15:52:54.519Z,24.96
2023-05-02T15:55:22.886Z,24.94
2023-05-02T15:57:53.304Z,25.27
2023-05-02T16:00:22.308Z,25.22
2023-05-02T16:02:51.337Z,25.21
2023-05-02T16:05:21.261Z,25.11
2023-05-02T16:07:49.811Z,25.18
2023-05-02T16:10:19.640Z,25.34
2023-05-02T16:12:48.494Z,25.64
2023-05-02T16:15:17.091Z,25.51
2023-05-02T16:17:45.872Z,25.51
2023-05-02T16:20:16.321Z,25.68
2023-05-02T16:22:48.717Z,25.85
2023-05-02T16:25:17.761Z,25.90
2023-05-02T16:27:46.162Z,26.06
2023-05-02T16:30:16.259Z,26.11
2023-05-02T16:32:45.335Z,26.17
2023-05-02T16:35:14.180Z,26.42
2023-05-02T16:37:42.954Z,26.81
2023-05-02T16:40:12.557Z,26.92
2023-05-02T16:42:41.316Z,27.13
2023-05-02T16:45:10.525Z,27.16
2023-05-02T16:47:39.488Z,27.44
2023-05-02T16:50:08.549Z,27.37
2023-05-02T16:52:38.179Z,27.49
2023-05-02T16:55:09.189Z,27.74
2023-05-02T16:57:39.213Z,28.14
2023-05-02T17:00:12.491Z,27.99
2023-05-02T17:02:41.029Z,28.08
2023-05-02T17:05:11.207Z,28.31
2023-05-02T17:07:39.854Z,28.41
2023-05-02T17:10:09.146Z,28.60
2023-05-02T17:12:37.359Z,28.82
2023-05-02T17:15:07.539Z,29.07
2023-05-02T17:17:36.737Z,29.15
2023-05-02T17:20:06.463Z,29.50
2023-05-02T17:22:35.766Z,29.69
2023-05-02T17:25:07.999Z,29.61
2023-05-02T17:27:39.108Z,29.93
2023-05-02T17:30:14.176Z,29.58
2023-05-02T17:32:43.896Z,29.91
2023-05-02T17:35:14.743Z,29.85
2023-05-02T17:37:44.351Z,30.35
2023-05-02T17:40:13.240Z,30.26
2023-05-02T17:42:46.248Z,30.66
2023-05-02T17:45:15.234Z,30.85
2023-05-02T17:47:43.675Z,31.05
2023-05-02T17:50:11.915Z,31.21
2023-05-02T17:52:40.685Z,31.25
2023-05-02T17:55:09.662Z,31.15
2023-05-02T17:57:38.041Z,31.54
2023-05-02T18:00:08.587Z,31.39
2023-05-02T18:02:38.222Z,31.76
2023-05-02T18:05:09.214Z,31.50
2023-05-02T18:07:38.110Z,31.71
2023-05-02T18:10:07.843Z,31.86
2023-05-02T18:12:37.017Z,31.88
2023-05-02T18:15:09.334Z,32.08
2023-05-02T18:17:38.225Z,32.51
2023-05-02T18:20:07.796Z,32.72
2023-05-02T18:22:38.782Z,32.93
2023-05-02T18:25:10.239Z,33.05
2023-05-02T18:27:38.760Z,32.74
2023-05-02T18:30:08.469Z,33.24
2023-05-02T18:32:39.335Z,33.19
2023-05-02T18:35:15.121Z,33.14
2023-05-02T18:37:43.550Z,33.89
2023-05-02T18:40:12.836Z,33.75
2023-05-02T18:42:41.770Z,34.31
2023-05-02T18:45:12.641Z,34.37
2023-05-02T18:47:41.107Z,34.10
2023-05-02T18:50:09.799Z,34.69
2023-05-02T18:52:38.248Z,35.59
2023-05-02T18:55:09.753Z,35.00
2023-05-02T18:57:38.290Z,34.57
2023-05-02T19:00:07.673Z,35.24
2023-05-02T19:02:37.624Z,35.62
2023-05-02T19:05:13.192Z,36.65
2023-05-02T19:07:42.542Z,35.95
2023-05-02T19:10:16.692Z,36.31
2023-05-02T19:12:46.659Z,36.16
2023-05-02T19:15:15.219Z,36.38
2023-05-02T19:17:44.685Z,37.02
2023-05-02T19:20:14.391Z,37.23
2023-05-02T19:22:48.722Z,37.88
2023-05-02T19:25:17.384Z,37.12
2023-05-02T19:27:47.867Z,36.76
2023-05-02T19:30:16.555Z,36.80
2023-05-02T19:32:45.159Z,37.43
2023-05-02T19:35:18.371Z,37.42
2023-05-02T19:37:49.098Z,37.22
2023-05-02T19:40:18.095Z,37.36
2023-05-02T19:42:46.579Z,38.01
2023-05-02T19:45:15.201Z,37.80
2023-05-02T19:47:45.687Z,37.88
2023-05-02T19:50:14.676Z,37.93
2023-05-02T19:52:44.688Z,38.37
2023-05-02T19:55:14.570Z,38.36
2023-05-02T19:57:44.753Z,38.51
2023-05-02T20:00:14.331Z,38.54
2023-05-02T20:02:45.048Z,38.27
2023-05-02T20:05:14.000Z,38.33
2023-05-02T20:07:44.648Z,38.64
2023-05-02T20:10:13.033Z,38.56
2023-05-02T20:12:45.063Z,38.84
2023-05-02T20:15:14.337Z,38.81
2023-05-02T20:17:43.472Z,38.78
2023-05-02T20:20:12.485Z,39.00
2023-05-02T20:22:40.828Z,39.22
2023-05-02T20:25:11.938Z,38.74
2023-05-02T20:27:41.011Z,38.82
2023-05-02T20:30:10.357Z,39.47
2023-05-02T20:32:38.979Z,39.42
2023-05-02T20:35:07.884Z,39.30
2023-05-02T20:37:36.664Z,39.31
2023-05-02T20:40:10.093Z,39.42
2023-05-02T20:42:40.473Z,39.31
2023-05-02T20:45:12.427Z,39.43
2023-05-02T20:47:40.777Z,39.26
2023-05-02T20:50:09.863Z,39.19
2023-05-02T20:52:39.453Z,39.27
2023-05-02T20:55:10.184Z,39.09
2023-05-02T20:57:38.923Z,39.16
2023-05-02T21:00:09.306Z,39.42
2023-05-02T21:02:37.873Z,39.38
2023-05-02T21:05:06.341Z,39.97
2023-05-02T21:07:36.179Z,39.47
2023-05-02T21:10:06.376Z,39.49
2023-05-02T21:12:34.940Z,39.39
2023-05-02T21:15:03.364Z,39.67
2023-05-02T21:17:31.859Z,39.64
2023-05-02T21:20:01.004Z,39.58
2023-05-02T21:22:30.011Z,39.64
2023-05-02T21:25:07.518Z,40.23
2023-05-02T21:27:36.026Z,40.68
2023-05-02T21:30:05.720Z,40.73
2023-05-02T21:32:35.087Z,40.40
2023-05-02T21:35:03.816Z,41.13
2023-05-02T21:37:32.480Z,40.65
2023-05-02T21:40:01.030Z,40.65
2023-05-02T21:42:29.872Z,40.95
2023-05-02T21:44:58.722Z,41.24
2023-05-02T21:47:27.051Z,41.19
2023-05-02T21:49:57.282Z,41.34
2023-05-02T21:52:26.098Z,41.53
2023-05-02T21:54:54.857Z,41.11
2023-05-02T21:57:23.451Z,41.79
2023-05-02T21:59:51.833Z,41.96
2023-05-02T22:02:20.395Z,42.18
2023-05-02T22:04:49.371Z,42.15
2023-05-02T22:07:17.741Z,42.29
2023-05-02T22:09:46.892Z,41.62
2023-05-02T22:12:15.447Z,42.16
2023-05-02T22:14:45.995Z,42.05
2023-05-02T22:17:18.690Z,42.17
2023-05-02T22:19:52.445Z,42.32
2023-05-02T22:22:20.854Z,42.85
2023-05-02T22:24:49.403Z,42.61
2023-05-02T22:27:18.097Z,42.24
2023-05-02T22:29:46.400Z,42.20
2023-05-02T22:32:14.943Z,42.99
2023-05-02T22:34:44.547Z,42.24
2023-05-02T22:37:13.029Z,42.56
2023-05-02T22:39:41.497Z,43.15
2023-05-02T22:42:13.151Z,42.64
2023-05-02T22:44:54.159Z,43.09
2023-05-02T22:47:23.913Z,43.46
2023-05-02T22:49:52.816Z,42.84
2023-05-02T22:52:21.397Z,42.95
2023-05-02T22:54:49.898Z,42.44
2023-05-02T22:57:18.385Z,42.58
2023-05-02T22:59:46.873Z,42.85
2023-05-02T23:02:17.242Z,43.58
2023-05-02T23:04:45.587Z,43.16
2023-05-02T23:07:19.288Z,42.78
2023-05-02T23:09:47.788Z,43.40
2023-05-02T23:12:16.364Z,43.97
2023-05-02T23:14:47.055Z,43.31
2023-05-02T23:17:28.171Z,43.29
2023-05-02T23:19:59.064Z,44.15
2023-05-02T23:22:32.217Z,43.16
2023-05-02T23:25:00.808Z,44.00
2023-05-02T23:27:29.322Z,43.52
2023-05-02T23:30:00.587Z,43.73
2023-05-02T23:32:29.905Z,43.93
2023-05-02T23:34:58.491Z,44.04
2023-05-02T23:37:30.091Z,44.08
2023-05-02T23:40:00.761Z,44.15
2023-05-02T23:42:30.432Z,43.84
2023-05-02T23:44:58.915Z,43.67
2023-05-02T23:47:27.401Z,43.47
2023-05-02T23:49:56.832Z,43.40
2023-05-02T23:52:25.186Z,43.58
2023-05-02T23:54:55.396Z,44.16
2023-05-02T23:57:23.993Z,43.93
2023-05-02T23:59:52.439Z,43.92
